createdAt,value
2023-05-23T00:01:41.092Z,96136.09
2023-05-23T00:04:08.978Z,96131.88
2023-05-23T00:06:36.272Z,96133.50
2023-05-23T00:09:03.292Z,96134.22
2023-05-23T00:11:31.164Z,96134.94
2023-05-23T00:14:01.041Z,96129.00
2023-05-23T00:16:28.079Z,96141.47
2023-05-23T00:18:57.494Z,96141.16
2023-05-23T00:21:24.489Z,96136.97
2023-05-23T00:23:51.388Z,96134.31
2023-05-23T00:26:18.256Z,96132.22
2023-05-23T00:28:45.229Z,96131.63
2023-05-23T00:31:12.170Z,96135.84
2023-05-23T00:33:39.022Z,96130.84
2023-05-23T00:36:06.166Z,96134.53
2023-05-23T00:38:33.057Z,96127.41
2023-05-23T00:41:00.215Z,96124.78
2023-05-23T00:43:27.534Z,96140.25
2023-05-23T00:45:54.409Z,96142.97
2023-05-23T00:48:21.762Z,96153.41
2023-05-23T00:50:48.697Z,96140.66
2023-05-23T00:53:16.931Z,96144.06
2023-05-23T00:55:44.946Z,96142.75
2023-05-23T00:58:13.155Z,96139.84
2023-05-23T01:00:40.222Z,96139.31
2023-05-23T01:03:07.283Z,96138.47
2023-05-23T01:05:34.211Z,96142.53
2023-05-23T01:08:03.280Z,96144.16
2023-05-23T01:10:31.779Z,96142.13
2023-05-23T01:13:06.981Z,96137.31
2023-05-23T01:15:58.687Z,96142.53
2023-05-23T01:18:30.550Z,96149.69
2023-05-23T01:21:19.673Z,96140.94
2023-05-23T01:24:36.330Z,96145.97
2023-05-23T01:27:40.915Z,96149.38
2023-05-23T01:30:09.733Z,96139.25
2023-05-23T01:32:38.477Z,96149.38
2023-05-23T01:35:06.673Z,96145.66
2023-05-23T01:37:33.573Z,96147.69
2023-05-23T01:42:30.556Z,96152.78
2023-05-23T01:44:59.502Z,96151.72
2023-05-23T01:47:27.173Z,96154.06
2023-05-23T01:49:56.345Z,96152.00
2023-05-23T01:52:23.811Z,96162.56
2023-05-23T01:54:51.780Z,96164.47
2023-05-23T01:57:20.338Z,96155.72
2023-05-23T01:59:47.247Z,96164.75
2023-05-23T02:02:14.118Z,96161.66
2023-05-23T02:04:41.046Z,96161.66
2023-05-23T02:07:07.923Z,96166.09
2023-05-23T02:09:34.786Z,96164.13
2023-05-23T02:12:01.619Z,96166.56
2023-05-23T02:14:28.538Z,96167.72
2023-05-23T02:16:55.460Z,96170.41
2023-05-23T02:19:22.392Z,96171.41
2023-05-23T02:21:49.323Z,96179.94
2023-05-23T02:24:16.171Z,96168.66
2023-05-23T02:26:43.069Z,96181.50
2023-05-23T02:29:09.967Z,96177.00
2023-05-23T02:31:37.054Z,96176.75
2023-05-23T02:34:03.995Z,96177.22
2023-05-23T02:36:33.249Z,96179.88
2023-05-23T02:39:00.276Z,96189.09
2023-05-23T02:41:27.154Z,96185.53
2023-05-23T02:43:54.069Z,96187.59
2023-05-23T02:46:20.996Z,96182.97
2023-05-23T02:48:47.895Z,96185.09
2023-05-23T02:51:14.877Z,96186.91
2023-05-23T02:53:41.802Z,96186.28
2023-05-23T02:56:09.781Z,96189.38
2023-05-23T02:58:37.013Z,96190.38
2023-05-23T03:01:05.436Z,96193.19
2023-05-23T03:03:34.664Z,96203.91
2023-05-23T03:06:04.984Z,96208.91
2023-05-23T03:08:31.955Z,96202.63
2023-05-23T03:10:58.816Z,96198.56
2023-05-23T03:13:25.679Z,96199.03
2023-05-23T03:15:52.596Z,96204.03
2023-05-23T03:18:19.482Z,96194.06
2023-05-23T03:20:46.347Z,96186.03
2023-05-23T03:23:13.176Z,96191.25
2023-05-23T03:25:40.278Z,96195.47
2023-05-23T03:28:07.237Z,96200.72
2023-05-23T03:30:34.158Z,96190.56
2023-05-23T03:33:01.947Z,96180.38
2023-05-23T03:35:28.837Z,96179.81
2023-05-23T03:37:55.737Z,96180.28
2023-05-23T03:40:22.651Z,96183.38
2023-05-23T03:43:01.724Z,96179.91
2023-05-23T03:45:28.600Z,96189.16
2023-05-23T03:47:55.497Z,96190.22
2023-05-23T03:50:22.339Z,96195.13
2023-05-23T03:52:49.140Z,96186.03
2023-05-23T03:55:16.190Z,96184.50
2023-05-23T03:57:42.996Z,96197.84
2023-05-23T04:00:12.645Z,96212.50
2023-05-23T04:02:42.408Z,96204.13
2023-05-23T04:05:09.603Z,96212.09
2023-05-23T04:07:37.057Z,96206.31
2023-05-23T04:10:04.686Z,96212.50
2023-05-23T04:12:31.678Z,96208.00
2023-05-23T04:14:58.671Z,96225.25
2023-05-23T04:17:25.835Z,96221.06
2023-05-23T04:19:52.890Z,96219.59
2023-05-23T04:22:19.734Z,96234.59
2023-05-23T04:24:46.588Z,96230.38
2023-05-23T04:27:13.765Z,96225.69
2023-05-23T04:29:40.616Z,96233.59
2023-05-23T04:32:08.184Z,96238.59
2023-05-23T04:34:35.102Z,96230.16
2023-05-23T04:37:02.614Z,96226.63
2023-05-23T04:39:30.010Z,96238.19
2023-05-23T04:41:57.780Z,96231.13
2023-05-23T04:44:24.680Z,96243.75
2023-05-23T04:46:51.634Z,96243.31
2023-05-23T04:49:21.370Z,96251.72
2023-05-23T04:51:48.608Z,96249.31
2023-05-23T04:54:16.262Z,96245.72
2023-05-23T04:56:43.331Z,96246.56
2023-05-23T04:59:11.494Z,96246.50
2023-05-23T05:01:41.394Z,96234.69
2023-05-23T05:04:08.523Z,96242.22
2023-05-23T05:06:36.635Z,96241.53
2023-05-23T05:09:03.488Z,96246.31
2023-05-23T05:11:30.581Z,96245.56
2023-05-23T05:13:57.443Z,96250.50
2023-05-23T05:16:24.315Z,96259.16
2023-05-23T05:18:51.542Z,96264.84
2023-05-23T05:21:18.468Z,96265.59
2023-05-23T05:23:45.566Z,96276.16
2023-05-23T05:26:12.423Z,96268.34
2023-05-23T05:28:39.331Z,96261.03
2023-05-23T05:31:06.336Z,96271.59
2023-05-23T05:33:36.379Z,96265.28
2023-05-23T05:36:06.530Z,96271.31
2023-05-23T05:38:33.472Z,96263.88
2023-05-23T05:41:00.370Z,96266.53
2023-05-23T05:43:27.230Z,96269.91
2023-05-23T05:45:54.163Z,96270.03
2023-05-23T05:48:21.098Z,96270.41
2023-05-23T05:50:48.036Z,96272.25
2023-05-23T05:53:14.966Z,96263.44
2023-05-23T05:55:41.816Z,96271.84
2023-05-23T05:58:08.804Z,96275.94
2023-05-23T06:00:42.165Z,96282.66
2023-05-23T06:03:09.541Z,96276.53
2023-05-23T06:05:40.056Z,96277.09
2023-05-23T06:08:07.776Z,96273.31
2023-05-23T06:10:34.747Z,96287.88
2023-05-23T06:13:01.629Z,96278.97
2023-05-23T06:15:28.481Z,96284.06
2023-05-23T06:17:55.445Z,96287.13
2023-05-23T06:20:22.620Z,96285.94
2023-05-23T06:22:49.631Z,96287.00
2023-05-23T06:25:16.576Z,96287.22
2023-05-23T06:27:44.836Z,96284.56
2023-05-23T06:30:12.558Z,96290.78
2023-05-23T06:32:41.136Z,96282.38
2023-05-23T06:35:08.627Z,96288.22
2023-05-23T06:37:35.580Z,96283.66
2023-05-23T06:40:02.468Z,96287.47
2023-05-23T06:42:29.754Z,96286.91
2023-05-23T06:44:56.780Z,96287.06
2023-05-23T06:47:23.661Z,96289.44
2023-05-23T06:49:50.576Z,96295.59
2023-05-23T06:52:17.488Z,96285.03
2023-05-23T06:54:44.346Z,96299.47
2023-05-23T06:57:11.393Z,96295.69
2023-05-23T06:59:38.219Z,96303.03
2023-05-23T07:02:05.354Z,96294.78
2023-05-23T07:04:32.186Z,96293.19
2023-05-23T07:06:59.108Z,96292.31
2023-05-23T07:09:26.098Z,96299.28
2023-05-23T07:11:52.965Z,96303.31
2023-05-23T07:14:20.730Z,96301.75
2023-05-23T07:16:47.603Z,96302.03
2023-05-23T07:19:14.498Z,96300.88
2023-05-23T07:21:41.404Z,96306.59
2023-05-23T07:24:08.345Z,96299.97
2023-05-23T07:26:35.304Z,96306.22
2023-05-23T07:29:02.178Z,96306.63
2023-05-23T07:31:29.112Z,96309.38
2023-05-23T07:33:56.678Z,96301.59
2023-05-23T07:36:23.821Z,96300.84
2023-05-23T07:38:50.670Z,96302.88
2023-05-23T07:41:17.839Z,96297.28
2023-05-23T07:43:44.658Z,96302.63
2023-05-23T07:46:11.658Z,96296.59
2023-05-23T07:48:38.552Z,96305.09
2023-05-23T07:51:05.508Z,96300.75
2023-05-23T07:53:32.363Z,96303.91
2023-05-23T07:55:59.226Z,96301.16
2023-05-23T07:58:26.224Z,96306.53
2023-05-23T08:00:53.545Z,96301.16
2023-05-23T08:03:20.658Z,96311.78
2023-05-23T08:05:47.911Z,96299.44
2023-05-23T08:08:14.831Z,96309.97
2023-05-23T08:10:42.134Z,96304.38
2023-05-23T08:13:12.281Z,96315.13
2023-05-23T08:15:39.123Z,96313.97
2023-05-23T08:18:06.233Z,96319.56
2023-05-23T08:20:33.257Z,96319.06
2023-05-23T08:23:01.892Z,96320.22
2023-05-23T08:25:32.474Z,96313.41
2023-05-23T08:28:00.732Z,96324.63
2023-05-23T08:30:29.278Z,96317.16
2023-05-23T08:32:57.866Z,96321.59
2023-05-23T08:35:24.820Z,96330.47
2023-05-23T08:37:52.389Z,96328.09
2023-05-23T08:40:22.442Z,96334.66
2023-05-23T08:42:50.902Z,96342.38
2023-05-23T08:45:18.771Z,96336.53
2023-05-23T08:47:47.402Z,96336.94
2023-05-23T08:50:21.144Z,96339.75
2023-05-23T08:52:57.225Z,96340.25
2023-05-23T08:55:28.163Z,96337.41
2023-05-23T08:58:01.617Z,96336.44
2023-05-23T09:00:29.258Z,96346.16
2023-05-23T09:02:57.597Z,96350.44
2023-05-23T09:05:26.748Z,96334.34
2023-05-23T09:07:53.793Z,96343.22
2023-05-23T09:10:21.180Z,96347.09
2023-05-23T09:12:48.695Z,96342.31
2023-05-23T09:15:17.060Z,96342.38
2023-05-23T09:17:45.095Z,96339.94
2023-05-23T09:20:14.821Z,96346.41
2023-05-23T09:22:47.080Z,96343.22
2023-05-23T09:25:14.432Z,96344.59
2023-05-23T09:27:42.913Z,96349.22
2023-05-23T09:30:12.942Z,96350.47
2023-05-23T09:32:40.218Z,96347.94
2023-05-23T09:35:12.223Z,96345.41
2023-05-23T09:37:48.173Z,96358.72
2023-05-23T09:40:16.226Z,96354.09
2023-05-23T09:42:48.131Z,96351.00
2023-05-23T09:45:17.120Z,96351.78
2023-05-23T09:47:53.941Z,96355.81
2023-05-23T09:50:22.277Z,96348.84
2023-05-23T09:52:49.702Z,96352.00
2023-05-23T09:55:17.197Z,96359.94
2023-05-23T09:57:45.366Z,96356.63
2023-05-23T10:00:13.826Z,96351.91
2023-05-23T10:02:58.498Z,96351.06
2023-05-23T10:05:40.177Z,96356.56
2023-05-23T10:08:31.222Z,96360.44
2023-05-23T10:10:57.975Z,96352.09
2023-05-23T10:13:28.982Z,96355.41
2023-05-23T10:16:20.258Z,96344.88
2023-05-23T10:18:57.801Z,96343.78
2023-05-23T10:21:33.681Z,96346.66
2023-05-23T10:24:01.359Z,96342.25
2023-05-23T10:26:28.578Z,96342.97
2023-05-23T10:28:56.243Z,96342.38
2023-05-23T10:31:24.878Z,96343.31
2023-05-23T10:34:05.608Z,96341.56
2023-05-23T10:36:49.299Z,96344.66
2023-05-23T10:39:41.662Z,96334.25
2023-05-23T10:42:33.605Z,96329.19
2023-05-23T10:45:17.554Z,96326.97
2023-05-23T10:47:44.693Z,96320.91
2023-05-23T10:50:17.359Z,96328.56
2023-05-23T10:52:45.047Z,96332.47
2023-05-23T10:55:17.809Z,96328.16
2023-05-23T10:57:45.771Z,96328.06
2023-05-23T11:00:15.886Z,96326.34
2023-05-23T11:03:00.119Z,96320.88
2023-05-23T11:05:31.778Z,96316.44
2023-05-23T11:08:14.970Z,96313.44
2023-05-23T11:11:02.623Z,96323.31
2023-05-23T11:13:57.069Z,96317.09
2023-05-23T11:16:42.004Z,96317.38
2023-05-23T11:19:23.011Z,96322.03
2023-05-23T11:22:03.230Z,96310.66
2023-05-23T11:24:53.615Z,96311.84
2023-05-23T11:27:41.786Z,96307.50
2023-05-23T11:30:17.621Z,96305.00
2023-05-23T11:32:53.330Z,96299.06
2023-05-23T11:35:21.791Z,96307.06
2023-05-23T11:37:49.098Z,96320.25
2023-05-23T11:40:27.137Z,96303.50
2023-05-23T11:42:55.178Z,96309.72
2023-05-23T11:45:27.174Z,96314.22
2023-05-23T11:47:54.397Z,96319.53
2023-05-23T11:50:21.959Z,96302.38
2023-05-23T11:52:51.874Z,96301.28
2023-05-23T11:55:22.882Z,96296.31
2023-05-23T11:57:51.511Z,96303.66
2023-05-23T12:00:19.645Z,96300.06
2023-05-23T12:02:48.898Z,96304.31
2023-05-23T12:05:16.423Z,96312.34
2023-05-23T12:07:47.854Z,96304.75
2023-05-23T12:10:22.345Z,96314.94
2023-05-23T12:12:52.003Z,96315.66
2023-05-23T12:15:18.890Z,96311.22
2023-05-23T12:17:46.570Z,96316.84
2023-05-23T12:20:14.131Z,96307.66
2023-05-23T12:22:42.268Z,96314.47
2023-05-23T12:25:12.765Z,96321.22
2023-05-23T12:27:44.117Z,96304.63
2023-05-23T12:30:16.472Z,96311.28
2023-05-23T12:32:45.395Z,96307.06
2023-05-23T12:35:15.081Z,96310.75
2023-05-23T12:37:46.049Z,96319.22
2023-05-23T12:40:18.078Z,96314.97
2023-05-23T12:42:56.318Z,96319.94
2023-05-23T12:45:34.322Z,96322.91
2023-05-23T12:48:02.269Z,96319.56
2023-05-23T12:50:29.800Z,96310.19
2023-05-23T12:52:56.998Z,96310.75
2023-05-23T12:55:23.917Z,96306.69
2023-05-23T12:57:51.259Z,96304.13
2023-05-23T13:00:19.580Z,96315.19
2023-05-23T13:02:46.709Z,96326.22
2023-05-23T13:05:13.614Z,96319.78
2023-05-23T13:07:41.235Z,96317.97
2023-05-23T13:10:09.059Z,96314.50
2023-05-23T13:12:36.109Z,96313.53
2023-05-23T13:15:03.009Z,96311.50
2023-05-23T13:17:29.948Z,96312.91
2023-05-23T13:19:57.222Z,96315.16
2023-05-23T13:22:24.169Z,96310.56
2023-05-23T13:24:50.990Z,96307.56
2023-05-23T13:27:18.680Z,96306.84
2023-05-23T13:29:45.560Z,96306.69
2023-05-23T13:32:12.496Z,96303.75
2023-05-23T13:34:39.404Z,96310.28
2023-05-23T13:37:06.480Z,96310.69
2023-05-23T13:39:33.427Z,96302.03
2023-05-23T13:42:00.479Z,96299.81
2023-05-23T13:44:27.368Z,96308.53
2023-05-23T13:46:55.691Z,96304.06
2023-05-23T13:49:22.714Z,96291.28
2023-05-23T13:51:50.125Z,96295.59
2023-05-23T13:54:17.378Z,96276.38
2023-05-23T13:56:44.251Z,96281.25
2023-05-23T13:59:11.129Z,96287.75
2023-05-23T14:01:38.031Z,96277.38
2023-05-23T14:04:06.965Z,96282.13
2023-05-23T14:06:34.199Z,96277.34
2023-05-23T14:09:01.458Z,96281.59
2023-05-23T14:11:28.458Z,96282.50
2023-05-23T14:13:55.363Z,96287.72
2023-05-23T14:16:22.315Z,96282.88
2023-05-23T14:18:49.391Z,96286.00
2023-05-23T14:21:16.399Z,96283.03
2023-05-23T14:23:43.264Z,96280.41
2023-05-23T14:26:10.194Z,96283.56
2023-05-23T14:28:37.334Z,96284.41
2023-05-23T14:31:04.231Z,96284.69
2023-05-23T14:33:31.057Z,96284.47
2023-05-23T14:35:57.948Z,96284.06
2023-05-23T14:38:25.087Z,96278.50
2023-05-23T14:40:51.986Z,96292.56
2023-05-23T14:43:19.058Z,96292.75
2023-05-23T14:45:46.126Z,96300.41
2023-05-23T14:48:13.235Z,96307.03
2023-05-23T14:50:40.745Z,96302.84
2023-05-23T14:53:07.802Z,96310.97
2023-05-23T14:55:34.691Z,96304.44
2023-05-23T14:58:03.451Z,96305.59
2023-05-23T15:00:30.353Z,96318.63
2023-05-23T15:02:57.266Z,96322.94
2023-05-23T15:05:25.105Z,96329.06
2023-05-23T15:07:51.979Z,96333.56
2023-05-23T15:10:19.038Z,96338.31
2023-05-23T15:12:45.976Z,96335.25
2023-05-23T15:15:13.102Z,96331.59
2023-05-23T15:17:40.001Z,96339.63
2023-05-23T15:20:10.715Z,96348.56
2023-05-23T15:22:39.735Z,96349.19
2023-05-23T15:25:08.632Z,96350.66
2023-05-23T15:27:35.941Z,96332.88
2023-05-23T15:30:04.207Z,96343.81
2023-05-23T15:32:31.165Z,96359.38
2023-05-23T15:34:58.047Z,96358.53
2023-05-23T15:37:24.915Z,96349.06
2023-05-23T15:39:51.758Z,96351.84
2023-05-23T15:42:18.666Z,96358.25
2023-05-23T15:44:45.648Z,96355.31
2023-05-23T15:47:12.619Z,96359.59
2023-05-23T15:49:39.475Z,96352.16
2023-05-23T15:52:06.347Z,96349.00
2023-05-23T15:54:33.188Z,96354.00
2023-05-23T15:57:00.016Z,96363.00
2023-05-23T15:59:26.922Z,96353.25
2023-05-23T16:01:53.820Z,96358.16
2023-05-23T16:04:20.822Z,96361.38
2023-05-23T16:06:47.686Z,96361.41
2023-05-23T16:09:14.557Z,96372.19
2023-05-23T16:11:41.769Z,96373.38
2023-05-23T16:14:08.736Z,96377.34
2023-05-23T16:16:35.734Z,96382.00
2023-05-23T16:19:03.356Z,96375.38
2023-05-23T16:21:30.824Z,96368.13
2023-05-23T16:23:57.713Z,96370.88
2023-05-23T16:26:24.638Z,96377.28
2023-05-23T16:28:51.515Z,96388.97
2023-05-23T16:31:18.583Z,96377.41
2023-05-23T16:33:45.885Z,96386.56
2023-05-23T16:36:12.742Z,96385.88
2023-05-23T16:38:40.021Z,96385.97
2023-05-23T16:41:06.926Z,96386.41
2023-05-23T16:43:34.692Z,96385.28
2023-05-23T16:46:02.286Z,96390.97
2023-05-23T16:48:29.339Z,96388.63
2023-05-23T16:50:57.800Z,96389.06
2023-05-23T16:53:24.739Z,96390.25
2023-05-23T16:55:51.818Z,96383.31
2023-05-23T16:58:20.970Z,96386.16
2023-05-23T17:00:48.735Z,96392.09
2023-05-23T17:03:15.993Z,96396.41
2023-05-23T17:05:43.284Z,96401.66
2023-05-23T17:08:10.446Z,96406.59
2023-05-23T17:10:37.645Z,96413.00
2023-05-23T17:13:04.512Z,96405.50
2023-05-23T17:15:31.603Z,96401.53
2023-05-23T17:17:58.524Z,96405.00
2023-05-23T17:20:26.874Z,96399.72
2023-05-23T17:22:54.648Z,96404.22
2023-05-23T17:25:21.710Z,96409.88
2023-05-23T17:27:48.579Z,96407.72
2023-05-23T17:30:18.433Z,96404.50
2023-05-23T17:32:48.254Z,96413.66
2023-05-23T17:35:15.350Z,96412.59
2023-05-23T17:37:44.677Z,96415.53
2023-05-23T17:40:13.005Z,96421.94
2023-05-23T17:42:42.767Z,96415.78
2023-05-23T17:45:10.314Z,96419.50
2023-05-23T17:47:37.243Z,96422.59
2023-05-23T17:50:07.704Z,96424.59
2023-05-23T17:52:35.751Z,96417.34
2023-05-23T17:55:02.724Z,96422.63
2023-05-23T17:57:32.428Z,96421.06
2023-05-23T17:59:59.632Z,96426.88
2023-05-23T18:02:29.133Z,96427.47
2023-05-23T18:04:56.473Z,96430.88
2023-05-23T18:07:23.388Z,96433.56
2023-05-23T18:09:50.231Z,96438.63
2023-05-23T18:12:17.642Z,96434.34
2023-05-23T18:14:45.418Z,96435.38
2023-05-23T18:17:12.900Z,96439.88
2023-05-23T18:19:39.939Z,96441.16
2023-05-23T18:22:06.984Z,96440.31
2023-05-23T18:24:33.849Z,96440.50
2023-05-23T18:27:00.826Z,96445.72
2023-05-23T18:29:27.820Z,96443.03
2023-05-23T18:31:54.782Z,96444.50
2023-05-23T18:34:22.453Z,96445.81
2023-05-23T18:36:49.336Z,96452.81
2023-05-23T18:39:16.840Z,96449.03
2023-05-23T18:41:43.814Z,96446.34
2023-05-23T18:44:10.745Z,96446.78
2023-05-23T18:46:37.762Z,96460.50
2023-05-23T18:49:04.972Z,96461.97
2023-05-23T18:51:33.281Z,96462.88
2023-05-23T18:54:00.199Z,96462.16
2023-05-23T18:56:27.370Z,96477.50
2023-05-23T18:58:54.270Z,96471.03
2023-05-23T19:01:21.371Z,96475.50
2023-05-23T19:03:48.736Z,96483.47
2023-05-23T19:06:15.908Z,96487.13
2023-05-23T19:08:42.912Z,96483.56
2023-05-23T19:11:10.733Z,96487.94
2023-05-23T19:13:37.947Z,96498.44
2023-05-23T19:16:05.128Z,96507.66
2023-05-23T19:18:32.253Z,96514.75
2023-05-23T19:20:59.852Z,96515.56
2023-05-23T19:23:28.020Z,96521.59
2023-05-23T19:25:54.899Z,96521.03
2023-05-23T19:28:22.098Z,96520.97
2023-05-23T19:30:49.324Z,96515.88
2023-05-23T19:33:18.025Z,96530.22
2023-05-23T19:35:44.951Z,96533.94
2023-05-23T19:38:11.913Z,96531.84
2023-05-23T19:40:38.937Z,96539.50
2023-05-23T19:43:05.990Z,96540.53
2023-05-23T19:45:32.904Z,96539.09
2023-05-23T19:47:59.926Z,96541.19
2023-05-23T19:50:27.122Z,96534.34
2023-05-23T19:52:53.995Z,96546.03
2023-05-23T19:55:20.882Z,96547.66
2023-05-23T19:57:47.818Z,96545.47
2023-05-23T20:00:14.981Z,96542.81
2023-05-23T20:02:42.558Z,96547.59
2023-05-23T20:05:09.918Z,96555.38
2023-05-23T20:07:37.067Z,96552.63
2023-05-23T20:10:04.938Z,96554.16
2023-05-23T20:12:31.875Z,96554.25
2023-05-23T20:14:58.766Z,96554.16
2023-05-23T20:17:25.886Z,96560.78
2023-05-23T20:19:52.793Z,96554.94
2023-05-23T20:22:19.727Z,96565.63
2023-05-23T20:24:46.799Z,96566.00
2023-05-23T20:27:14.016Z,96563.50
2023-05-23T20:29:41.263Z,96565.84
2023-05-23T20:32:08.152Z,96560.75
2023-05-23T20:34:35.648Z,96575.66
2023-05-23T20:37:03.533Z,96577.84
2023-05-23T20:39:30.485Z,96577.63
2023-05-23T20:41:57.770Z,96576.94
2023-05-23T20:44:24.685Z,96579.91
2023-05-23T20:46:51.659Z,96575.53
2023-05-23T20:49:18.738Z,96587.34
2023-05-23T20:51:45.627Z,96583.28
2023-05-23T20:54:12.791Z,96587.34
2023-05-23T20:56:39.695Z,96584.19
2023-05-23T20:59:06.644Z,96588.69
2023-05-23T21:01:33.604Z,96598.72
2023-05-23T21:04:00.682Z,96594.81
2023-05-23T21:06:27.593Z,96592.63
2023-05-23T21:08:54.445Z,96588.22
2023-05-23T21:11:22.284Z,96596.53
2023-05-23T21:13:49.111Z,96597.88
2023-05-23T21:16:16.112Z,96598.13
2023-05-23T21:18:42.965Z,96601.56
2023-05-23T21:21:09.924Z,96598.38
2023-05-23T21:23:36.774Z,96604.38
2023-05-23T21:26:03.675Z,96605.53
2023-05-23T21:28:30.629Z,96609.22
2023-05-23T21:30:58.061Z,96609.44
2023-05-23T21:33:24.993Z,96608.78
2023-05-23T21:35:51.908Z,96616.16
2023-05-23T21:38:18.818Z,96610.41
2023-05-23T21:40:45.965Z,96612.25
2023-05-23T21:43:13.496Z,96614.81
2023-05-23T21:45:40.412Z,96618.88
2023-05-23T21:48:07.343Z,96617.00
2023-05-23T21:50:34.233Z,96613.19
2023-05-23T21:53:01.169Z,96615.03
2023-05-23T21:55:28.119Z,96613.63
2023-05-23T21:57:56.266Z,96620.13
2023-05-23T22:00:23.859Z,96627.06
2023-05-23T22:02:50.822Z,96625.31
2023-05-23T22:05:17.792Z,96620.13
2023-05-23T22:07:44.691Z,96634.97
2023-05-23T22:10:11.856Z,96638.34
2023-05-23T22:12:38.856Z,96639.25
2023-05-23T22:15:08.287Z,96643.03
2023-05-23T22:17:35.218Z,96643.75
2023-05-23T22:20:05.032Z,96641.31
2023-05-23T22:22:31.987Z,96644.91
2023-05-23T22:24:58.878Z,96648.81
2023-05-23T22:27:25.726Z,96653.22
2023-05-23T22:29:52.905Z,96643.91
2023-05-23T22:32:19.840Z,96643.19
2023-05-23T22:34:46.719Z,96645.38
2023-05-23T22:37:15.653Z,96642.28
2023-05-23T22:39:42.615Z,96632.47
2023-05-23T22:42:09.484Z,96634.75
2023-05-23T22:44:36.665Z,96629.44
2023-05-23T22:47:03.859Z,96628.50
2023-05-23T22:49:31.197Z,96633.59
2023-05-23T22:51:59.204Z,96621.34
2023-05-23T22:54:26.160Z,96626.75
2023-05-23T22:56:53.101Z,96624.09
2023-05-23T22:59:20.065Z,96607.78
2023-05-23T23:01:47.166Z,96611.66
2023-05-23T23:04:14.858Z,96615.13
2023-05-23T23:06:43.118Z,96607.88
2023-05-23T23:09:10.151Z,96613.91
2023-05-23T23:11:37.117Z,96615.38
2023-05-23T23:14:03.948Z,96616.09
2023-05-23T23:16:31.013Z,96608.06
2023-05-23T23:18:58.740Z,96612.72
2023-05-23T23:21:25.827Z,96613.19
2023-05-23T23:23:52.687Z,96608.00
2023-05-23T23:26:19.720Z,96614.34
2023-05-23T23:28:46.578Z,96617.34
2023-05-23T23:31:13.492Z,96621.91
2023-05-23T23:33:40.613Z,96618.50
2023-05-23T23:36:07.685Z,96621.91
2023-05-23T23:38:34.569Z,96632.06
2023-05-23T23:41:01.420Z,96618.78
2023-05-23T23:43:28.318Z,96626.75
2023-05-23T23:45:55.191Z,96618.78
2023-05-23T23:48:22.073Z,96620.41
2023-05-23T23:50:48.929Z,96619.75
2023-05-23T23:53:16.865Z,96624.94
2023-05-23T23:55:43.800Z,96620.00
2023-05-23T23:58:10.646Z,96612.94
